Terminal Aerodrome Forecast
Issued by NWS

Home | Current Version | Previous Version | Text Only | Print | Product List | Glossary On
Versions: 1 2 3 4 5 6 7 8 9 10 11 12 13 14 15 16 17 18 19 20 21
133
FTUS43 KDLH 160530
TAFBRD
TAF
KBRD 160530Z 1606/1706 31011KT P6SM SKC
     FM160900 29009KT P6SM SKC
     FM161900 23010G16KT P6SM FEW250
     FM170300 19012G23KT P6SM BKN080=

USA.gov is the U.S. government's official web portal to all federal, state and local government web resources and services.